sensor_id;sensor_type;location;lat;lon;timestamp;P1;durP1;ratioP1;P2;durP2;ratioP2
5961;SDS011;3007;50.770;0.250;2023-12-04T00:01:13;9.77;;;3.67;;
5961;SDS011;3007;50.770;0.250;2023-12-04T00:03:40;9.50;;;3.73;;
5961;SDS011;3007;50.770;0.250;2023-12-04T00:06:07;11.50;;;3.37;;
5961;SDS011;3007;50.770;0.250;2023-12-04T00:08:35;6.60;;;3.37;;
5961;SDS011;3007;50.770;0.250;2023-12-04T00:11:02;13.47;;;3.70;;
5961;SDS011;3007;50.770;0.250;2023-12-04T00:13:29;8.33;;;3.43;;
5961;SDS011;3007;50.770;0.250;2023-12-04T00:15:56;10.27;;;2.97;;
5961;SDS011;3007;50.770;0.250;2023-12-04T00:18:24;9.20;;;3.47;;
5961;SDS011;3007;50.770;0.250;2023-12-04T00:20:51;11.30;;;3.27;;
5961;SDS011;3007;50.770;0.250;2023-12-04T00:23:18;10.10;;;3.43;;
5961;SDS011;3007;50.770;0.250;2023-12-04T00:25:45;8.30;;;3.27;;
5961;SDS011;3007;50.770;0.250;2023-12-04T00:28:12;15.03;;;4.27;;
5961;SDS011;3007;50.770;0.250;2023-12-04T00:30:39;10.93;;;2.93;;
5961;SDS011;3007;50.770;0.250;2023-12-04T00:33:05;11.43;;;3.13;;
5961;SDS011;3007;50.770;0.250;2023-12-04T00:35:34;7.67;;;2.63;;
5961;SDS011;3007;50.770;0.250;2023-12-04T00:38:00;14.17;;;3.53;;
5961;SDS011;3007;50.770;0.250;2023-12-04T00:40:27;9.53;;;2.60;;
5961;SDS011;3007;50.770;0.250;2023-12-04T00:42:54;4.73;;;2.67;;
5961;SDS011;3007;50.770;0.250;2023-12-04T00:45:21;8.60;;;3.23;;
5961;SDS011;3007;50.770;0.250;2023-12-04T00:47:49;10.30;;;3.40;;
5961;SDS011;3007;50.770;0.250;2023-12-04T00:50:16;9.17;;;2.93;;
5961;SDS011;3007;50.770;0.250;2023-12-04T00:52:44;7.23;;;3.43;;
5961;SDS011;3007;50.770;0.250;2023-12-04T00:55:11;11.13;;;3.03;;
5961;SDS011;3007;50.770;0.250;2023-12-04T00:57:38;10.47;;;3.30;;
5961;SDS011;3007;50.770;0.250;2023-12-04T01:00:05;9.17;;;3.17;;
5961;SDS011;3007;50.770;0.250;2023-12-04T01:02:33;17.60;;;3.40;;
5961;SDS011;3007;50.770;0.250;2023-12-04T01:05:00;10.80;;;3.00;;
5961;SDS011;3007;50.770;0.250;2023-12-04T01:07:27;10.63;;;3.80;;
5961;SDS011;3007;50.770;0.250;2023-12-04T01:09:55;8.63;;;3.23;;
5961;SDS011;3007;50.770;0.250;2023-12-04T01:12:22;8.30;;;2.70;;
5961;SDS011;3007;50.770;0.250;2023-12-04T01:14:49;9.03;;;2.43;;
5961;SDS011;3007;50.770;0.250;2023-12-04T01:17:16;14.70;;;3.73;;
5961;SDS011;3007;50.770;0.250;2023-12-04T01:19:43;16.03;;;3.73;;
5961;SDS011;3007;50.770;0.250;2023-12-04T01:22:09;18.67;;;3.03;;
5961;SDS011;3007;50.770;0.250;2023-12-04T01:24:36;12.17;;;3.33;;
5961;SDS011;3007;50.770;0.250;2023-12-04T01:27:05;14.63;;;3.27;;
5961;SDS011;3007;50.770;0.250;2023-12-04T01:29:31;12.70;;;3.37;;
5961;SDS011;3007;50.770;0.250;2023-12-04T01:31:59;14.13;;;3.60;;
5961;SDS011;3007;50.770;0.250;2023-12-04T01:34:26;10.47;;;2.77;;
5961;SDS011;3007;50.770;0.250;2023-12-04T01:36:53;12.70;;;2.77;;
5961;SDS011;3007;50.770;0.250;2023-12-04T01:39:20;11.07;;;2.90;;
5961;SDS011;3007;50.770;0.250;2023-12-04T01:41:47;12.73;;;2.60;;
5961;SDS011;3007;50.770;0.250;2023-12-04T01:44:16;9.80;;;3.17;;
5961;SDS011;3007;50.770;0.250;2023-12-04T01:46:43;16.80;;;3.07;;
5961;SDS011;3007;50.770;0.250;2023-12-04T01:49:10;11.50;;;3.20;;
5961;SDS011;3007;50.770;0.250;2023-12-04T01:51:37;13.83;;;3.23;;
5961;SDS011;3007;50.770;0.250;2023-12-04T01:54:04;17.00;;;3.40;;
5961;SDS011;3007;50.770;0.250;2023-12-04T01:56:31;11.43;;;2.67;;
5961;SDS011;3007;50.770;0.250;2023-12-04T01:59:00;12.90;;;3.30;;
5961;SDS011;3007;50.770;0.250;2023-12-04T02:01:28;19.17;;;3.20;;
5961;SDS011;3007;50.770;0.250;2023-12-04T02:03:56;11.57;;;3.20;;
5961;SDS011;3007;50.770;0.250;2023-12-04T02:06:25;15.40;;;3.20;;
5961;SDS011;3007;50.770;0.250;2023-12-04T02:08:52;16.30;;;3.57;;
5961;SDS011;3007;50.770;0.250;2023-12-04T02:11:19;15.23;;;3.63;;
5961;SDS011;3007;50.770;0.250;2023-12-04T02:13:46;11.93;;;3.40;;
5961;SDS011;3007;50.770;0.250;2023-12-04T02:16:13;19.60;;;3.37;;
5961;SDS011;3007;50.770;0.250;2023-12-04T02:18:45;12.57;;;2.90;;
5961;SDS011;3007;50.770;0.250;2023-12-04T02:21:13;11.73;;;2.67;;
5961;SDS011;3007;50.770;0.250;2023-12-04T02:23:39;11.10;;;3.33;;
5961;SDS011;3007;50.770;0.250;2023-12-04T02:26:10;13.33;;;3.40;;
5961;SDS011;3007;50.770;0.250;2023-12-04T02:28:40;11.83;;;3.27;;
5961;SDS011;3007;50.770;0.250;2023-12-04T02:31:10;21.03;;;3.27;;
5961;SDS011;3007;50.770;0.250;2023-12-04T02:33:38;14.87;;;3.30;;
5961;SDS011;3007;50.770;0.250;2023-12-04T02:36:07;13.37;;;3.40;;
5961;SDS011;3007;50.770;0.250;2023-12-04T02:38:35;14.50;;;2.80;;
5961;SDS011;3007;50.770;0.250;2023-12-04T02:41:04;17.47;;;2.77;;
5961;SDS011;3007;50.770;0.250;2023-12-04T02:43:32;15.83;;;3.40;;
5961;SDS011;3007;50.770;0.250;2023-12-04T02:45:59;14.80;;;3.17;;
5961;SDS011;3007;50.770;0.250;2023-12-04T02:48:26;22.00;;;3.23;;
5961;SDS011;3007;50.770;0.250;2023-12-04T02:50:53;17.10;;;3.40;;
5961;SDS011;3007;50.770;0.250;2023-12-04T02:53:20;14.10;;;3.27;;
5961;SDS011;3007;50.770;0.250;2023-12-04T02:55:46;12.77;;;2.57;;
5961;SDS011;3007;50.770;0.250;2023-12-04T02:58:13;13.53;;;2.83;;
5961;SDS011;3007;50.770;0.250;2023-12-04T03:00:41;8.70;;;3.20;;
5961;SDS011;3007;50.770;0.250;2023-12-04T03:03:08;10.37;;;3.50;;
5961;SDS011;3007;50.770;0.250;2023-12-04T03:05:35;11.97;;;3.00;;
5961;SDS011;3007;50.770;0.250;2023-12-04T03:08:02;12.23;;;3.10;;
5961;SDS011;3007;50.770;0.250;2023-12-04T03:10:31;10.13;;;3.20;;
5961;SDS011;3007;50.770;0.250;2023-12-04T03:12:58;14.63;;;3.30;;
5961;SDS011;3007;50.770;0.250;2023-12-04T03:15:25;12.37;;;3.20;;
5961;SDS011;3007;50.770;0.250;2023-12-04T03:17:55;11.93;;;3.73;;
5961;SDS011;3007;50.770;0.250;2023-12-04T03:20:22;16.53;;;4.00;;
5961;SDS011;3007;50.770;0.250;2023-12-04T03:22:49;14.63;;;3.47;;
5961;SDS011;3007;50.770;0.250;2023-12-04T03:25:15;13.43;;;4.87;;
5961;SDS011;3007;50.770;0.250;2023-12-04T03:27:42;10.03;;;3.37;;
5961;SDS011;3007;50.770;0.250;2023-12-04T03:30:09;21.80;;;4.73;;
5961;SDS011;3007;50.770;0.250;2023-12-04T03:32:37;23.53;;;3.80;;
5961;SDS011;3007;50.770;0.250;2023-12-04T03:35:05;18.80;;;3.97;;
5961;SDS011;3007;50.770;0.250;2023-12-04T03:37:33;15.70;;;3.33;;
5961;SDS011;3007;50.770;0.250;2023-12-04T03:40:00;17.10;;;3.77;;
5961;SDS011;3007;50.770;0.250;2023-12-04T03:42:27;18.23;;;3.50;;
5961;SDS011;3007;50.770;0.250;2023-12-04T03:44:54;14.70;;;3.83;;
5961;SDS011;3007;50.770;0.250;2023-12-04T03:47:21;17.83;;;3.30;;
5961;SDS011;3007;50.770;0.250;2023-12-04T03:49:48;17.63;;;3.67;;
5961;SDS011;3007;50.770;0.250;2023-12-04T03:52:16;18.77;;;4.00;;
5961;SDS011;3007;50.770;0.250;2023-12-04T03:54:44;19.07;;;3.40;;
5961;SDS011;3007;50.770;0.250;2023-12-04T03:57:11;23.63;;;4.00;;
5961;SDS011;3007;50.770;0.250;2023-12-04T03:59:38;18.23;;;4.60;;
5961;SDS011;3007;50.770;0.250;2023-12-04T04:02:05;17.40;;;4.13;;
5961;SDS011;3007;50.770;0.250;2023-12-04T04:04:31;17.70;;;4.17;;
5961;SDS011;3007;50.770;0.250;2023-12-04T04:06:58;17.93;;;4.13;;
5961;SDS011;3007;50.770;0.250;2023-12-04T04:09:26;15.93;;;4.20;;
5961;SDS011;3007;50.770;0.250;2023-12-04T04:11:53;19.13;;;4.40;;
5961;SDS011;3007;50.770;0.250;2023-12-04T04:14:20;10.87;;;3.37;;
5961;SDS011;3007;50.770;0.250;2023-12-04T04:16:48;11.17;;;3.50;;
5961;SDS011;3007;50.770;0.250;2023-12-04T04:19:15;21.30;;;4.13;;
5961;SDS011;3007;50.770;0.250;2023-12-04T04:21:42;17.27;;;4.80;;
5961;SDS011;3007;50.770;0.250;2023-12-04T04:24:08;18.00;;;4.27;;
5961;SDS011;3007;50.770;0.250;2023-12-04T04:26:37;18.50;;;4.10;;
5961;SDS011;3007;50.770;0.250;2023-12-04T04:29:04;11.73;;;4.37;;
5961;SDS011;3007;50.770;0.250;2023-12-04T04:31:31;12.70;;;4.07;;
5961;SDS011;3007;50.770;0.250;2023-12-04T04:33:57;19.70;;;4.73;;
5961;SDS011;3007;50.770;0.250;2023-12-04T04:36:24;24.60;;;5.13;;
5961;SDS011;3007;50.770;0.250;2023-12-04T04:38:51;14.67;;;4.17;;
5961;SDS011;3007;50.770;0.250;2023-12-04T04:41:19;17.83;;;4.27;;
5961;SDS011;3007;50.770;0.250;2023-12-04T04:43:48;14.70;;;4.40;;
5961;SDS011;3007;50.770;0.250;2023-12-04T04:46:15;18.60;;;4.50;;
5961;SDS011;3007;50.770;0.250;2023-12-04T04:48:42;15.67;;;3.90;;
5961;SDS011;3007;50.770;0.250;2023-12-04T04:51:10;16.03;;;4.53;;
5961;SDS011;3007;50.770;0.250;2023-12-04T04:53:38;11.30;;;4.30;;
5961;SDS011;3007;50.770;0.250;2023-12-04T04:56:08;11.77;;;4.13;;
5961;SDS011;3007;50.770;0.250;2023-12-04T04:58:36;15.17;;;4.97;;
5961;SDS011;3007;50.770;0.250;2023-12-04T05:01:06;14.00;;;4.43;;
5961;SDS011;3007;50.770;0.250;2023-12-04T05:03:34;12.90;;;4.83;;
5961;SDS011;3007;50.770;0.250;2023-12-04T05:06:01;13.13;;;4.27;;
5961;SDS011;3007;50.770;0.250;2023-12-04T05:08:28;12.33;;;4.30;;
5961;SDS011;3007;50.770;0.250;2023-12-04T05:10:54;12.47;;;3.63;;
5961;SDS011;3007;50.770;0.250;2023-12-04T05:13:22;18.23;;;4.43;;
5961;SDS011;3007;50.770;0.250;2023-12-04T05:15:49;17.03;;;5.30;;
5961;SDS011;3007;50.770;0.250;2023-12-04T05:18:17;10.50;;;3.70;;
5961;SDS011;3007;50.770;0.250;2023-12-04T05:20:44;20.30;;;4.97;;
5961;SDS011;3007;50.770;0.250;2023-12-04T05:23:12;11.77;;;3.57;;
5961;SDS011;3007;50.770;0.250;2023-12-04T05:25:39;17.57;;;4.63;;
5961;SDS011;3007;50.770;0.250;2023-12-04T05:28:06;16.67;;;5.30;;
5961;SDS011;3007;50.770;0.250;2023-12-04T05:30:34;11.83;;;4.70;;
5961;SDS011;3007;50.770;0.250;2023-12-04T05:33:00;15.87;;;4.80;;
5961;SDS011;3007;50.770;0.250;2023-12-04T05:35:29;16.23;;;4.67;;
5961;SDS011;3007;50.770;0.250;2023-12-04T05:37:58;12.53;;;4.00;;
5961;SDS011;3007;50.770;0.250;2023-12-04T05:40:25;14.23;;;3.97;;
5961;SDS011;3007;50.770;0.250;2023-12-04T05:42:52;14.13;;;4.33;;
5961;SDS011;3007;50.770;0.250;2023-12-04T05:45:19;15.17;;;4.37;;
5961;SDS011;3007;50.770;0.250;2023-12-04T05:47:46;17.00;;;4.37;;
5961;SDS011;3007;50.770;0.250;2023-12-04T05:50:13;10.67;;;3.87;;
5961;SDS011;3007;50.770;0.250;2023-12-04T05:52:41;15.63;;;4.07;;
5961;SDS011;3007;50.770;0.250;2023-12-04T05:55:08;19.23;;;4.37;;
5961;SDS011;3007;50.770;0.250;2023-12-04T05:57:36;11.50;;;4.10;;
5961;SDS011;3007;50.770;0.250;2023-12-04T06:00:05;19.03;;;4.60;;
5961;SDS011;3007;50.770;0.250;2023-12-04T06:02:37;18.80;;;4.67;;
5961;SDS011;3007;50.770;0.250;2023-12-04T06:05:04;12.00;;;4.53;;
5961;SDS011;3007;50.770;0.250;2023-12-04T06:07:32;12.73;;;3.90;;
5961;SDS011;3007;50.770;0.250;2023-12-04T06:10:04;12.87;;;4.90;;
5961;SDS011;3007;50.770;0.250;2023-12-04T06:12:32;16.87;;;5.33;;
5961;SDS011;3007;50.770;0.250;2023-12-04T06:14:59;14.03;;;4.60;;
5961;SDS011;3007;50.770;0.250;2023-12-04T06:17:26;15.33;;;5.00;;
5961;SDS011;3007;50.770;0.250;2023-12-04T06:19:53;11.03;;;4.37;;
5961;SDS011;3007;50.770;0.250;2023-12-04T06:22:23;9.97;;;3.93;;
5961;SDS011;3007;50.770;0.250;2023-12-04T06:24:51;14.83;;;4.77;;
5961;SDS011;3007;50.770;0.250;2023-12-04T06:27:20;13.00;;;4.50;;
5961;SDS011;3007;50.770;0.250;2023-12-04T06:29:48;11.00;;;4.30;;
5961;SDS011;3007;50.770;0.250;2023-12-04T06:32:16;13.90;;;4.23;;
5961;SDS011;3007;50.770;0.250;2023-12-04T06:34:44;18.87;;;5.07;;
5961;SDS011;3007;50.770;0.250;2023-12-04T06:37:12;14.63;;;5.13;;
5961;SDS011;3007;50.770;0.250;2023-12-04T06:39:39;16.03;;;5.57;;
5961;SDS011;3007;50.770;0.250;2023-12-04T06:42:07;15.13;;;5.50;;
5961;SDS011;3007;50.770;0.250;2023-12-04T06:44:37;13.37;;;4.00;;
5961;SDS011;3007;50.770;0.250;2023-12-04T06:47:04;14.67;;;5.40;;
5961;SDS011;3007;50.770;0.250;2023-12-04T06:49:34;16.80;;;5.30;;
5961;SDS011;3007;50.770;0.250;2023-12-04T06:52:01;13.63;;;5.00;;
5961;SDS011;3007;50.770;0.250;2023-12-04T06:54:28;18.87;;;5.87;;
5961;SDS011;3007;50.770;0.250;2023-12-04T06:56:55;18.63;;;5.10;;
5961;SDS011;3007;50.770;0.250;2023-12-04T06:59:22;17.40;;;5.63;;
5961;SDS011;3007;50.770;0.250;2023-12-04T07:01:50;24.03;;;5.57;;
5961;SDS011;3007;50.770;0.250;2023-12-04T07:04:17;15.90;;;5.13;;
5961;SDS011;3007;50.770;0.250;2023-12-04T07:06:46;16.57;;;4.97;;
5961;SDS011;3007;50.770;0.250;2023-12-04T07:09:14;15.33;;;5.33;;
5961;SDS011;3007;50.770;0.250;2023-12-04T07:11:41;16.93;;;5.53;;
5961;SDS011;3007;50.770;0.250;2023-12-04T07:14:09;18.13;;;5.80;;
5961;SDS011;3007;50.770;0.250;2023-12-04T07:16:39;15.73;;;4.83;;
5961;SDS011;3007;50.770;0.250;2023-12-04T07:19:20;13.20;;;4.90;;
5961;SDS011;3007;50.770;0.250;2023-12-04T07:21:47;18.97;;;4.67;;
5961;SDS011;3007;50.770;0.250;2023-12-04T07:24:15;16.80;;;5.43;;
5961;SDS011;3007;50.770;0.250;2023-12-04T07:26:41;11.77;;;5.13;;
5961;SDS011;3007;50.770;0.250;2023-12-04T07:29:08;13.25;;;5.70;;
5961;SDS011;3007;50.770;0.250;2023-12-04T07:31:35;16.77;;;5.00;;
5961;SDS011;3007;50.770;0.250;2023-12-04T07:34:02;18.30;;;5.50;;
5961;SDS011;3007;50.770;0.250;2023-12-04T07:36:31;15.40;;;4.60;;
5961;SDS011;3007;50.770;0.250;2023-12-04T07:38:57;12.90;;;4.93;;
5961;SDS011;3007;50.770;0.250;2023-12-04T07:41:24;18.27;;;5.10;;
5961;SDS011;3007;50.770;0.250;2023-12-04T07:43:51;14.97;;;4.67;;
5961;SDS011;3007;50.770;0.250;2023-12-04T07:46:19;12.33;;;4.57;;
5961;SDS011;3007;50.770;0.250;2023-12-04T07:48:46;14.67;;;4.87;;
5961;SDS011;3007;50.770;0.250;2023-12-04T07:51:13;15.43;;;4.10;;
5961;SDS011;3007;50.770;0.250;2023-12-04T07:53:41;16.57;;;5.00;;
5961;SDS011;3007;50.770;0.250;2023-12-04T07:56:09;17.27;;;5.33;;
5961;SDS011;3007;50.770;0.250;2023-12-04T07:58:39;13.63;;;7.67;;
5961;SDS011;3007;50.770;0.250;2023-12-04T08:01:07;14.97;;;7.20;;
5961;SDS011;3007;50.770;0.250;2023-12-04T08:03:34;13.93;;;5.47;;
5961;SDS011;3007;50.770;0.250;2023-12-04T08:06:02;15.80;;;4.50;;
5961;SDS011;3007;50.770;0.250;2023-12-04T08:08:29;13.23;;;5.97;;
5961;SDS011;3007;50.770;0.250;2023-12-04T08:10:58;15.50;;;4.10;;
5961;SDS011;3007;50.770;0.250;2023-12-04T08:13:25;19.50;;;5.03;;
5961;SDS011;3007;50.770;0.250;2023-12-04T08:15:52;14.53;;;4.40;;
5961;SDS011;3007;50.770;0.250;2023-12-04T08:18:18;13.23;;;4.60;;
5961;SDS011;3007;50.770;0.250;2023-12-04T08:20:45;22.00;;;5.07;;
5961;SDS011;3007;50.770;0.250;2023-12-04T08:23:12;15.00;;;4.27;;
5961;SDS011;3007;50.770;0.250;2023-12-04T08:25:40;14.13;;;4.53;;
5961;SDS011;3007;50.770;0.250;2023-12-04T08:28:08;14.03;;;4.83;;
5961;SDS011;3007;50.770;0.250;2023-12-04T08:30:36;15.97;;;4.20;;
5961;SDS011;3007;50.770;0.250;2023-12-04T08:33:06;12.87;;;4.63;;
5961;SDS011;3007;50.770;0.250;2023-12-04T08:35:33;17.47;;;4.40;;
5961;SDS011;3007;50.770;0.250;2023-12-04T08:38:00;16.27;;;4.27;;
5961;SDS011;3007;50.770;0.250;2023-12-04T08:40:27;8.60;;;4.03;;
5961;SDS011;3007;50.770;0.250;2023-12-04T08:42:54;11.70;;;4.10;;
5961;SDS011;3007;50.770;0.250;2023-12-04T08:45:23;10.87;;;3.63;;
5961;SDS011;3007;50.770;0.250;2023-12-04T08:47:50;14.10;;;4.50;;
5961;SDS011;3007;50.770;0.250;2023-12-04T08:50:17;17.57;;;5.07;;
5961;SDS011;3007;50.770;0.250;2023-12-04T08:52:44;15.43;;;4.30;;
5961;SDS011;3007;50.770;0.250;2023-12-04T08:55:10;10.93;;;4.40;;
5961;SDS011;3007;50.770;0.250;2023-12-04T08:57:38;15.37;;;4.30;;
5961;SDS011;3007;50.770;0.250;2023-12-04T09:00:05;11.67;;;4.80;;
5961;SDS011;3007;50.770;0.250;2023-12-04T09:02:34;14.23;;;4.43;;
5961;SDS011;3007;50.770;0.250;2023-12-04T09:05:01;14.97;;;4.33;;
5961;SDS011;3007;50.770;0.250;2023-12-04T09:07:29;10.70;;;4.10;;
5961;SDS011;3007;50.770;0.250;2023-12-04T09:09:56;16.23;;;4.70;;
5961;SDS011;3007;50.770;0.250;2023-12-04T09:12:24;15.77;;;4.00;;
5961;SDS011;3007;50.770;0.250;2023-12-04T09:14:51;13.70;;;3.93;;
5961;SDS011;3007;50.770;0.250;2023-12-04T09:17:18;14.93;;;4.50;;
5961;SDS011;3007;50.770;0.250;2023-12-04T09:19:47;12.97;;;4.97;;
5961;SDS011;3007;50.770;0.250;2023-12-04T09:22:13;15.53;;;5.00;;
5961;SDS011;3007;50.770;0.250;2023-12-04T09:24:40;16.03;;;4.10;;
5961;SDS011;3007;50.770;0.250;2023-12-04T09:27:08;14.33;;;4.17;;
5961;SDS011;3007;50.770;0.250;2023-12-04T09:29:35;14.23;;;4.63;;
5961;SDS011;3007;50.770;0.250;2023-12-04T09:32:03;25.33;;;4.63;;
5961;SDS011;3007;50.770;0.250;2023-12-04T09:34:30;16.47;;;3.93;;
5961;SDS011;3007;50.770;0.250;2023-12-04T09:37:00;20.27;;;4.37;;
5961;SDS011;3007;50.770;0.250;2023-12-04T09:39:27;11.03;;;4.50;;
5961;SDS011;3007;50.770;0.250;2023-12-04T09:41:56;18.77;;;4.57;;
5961;SDS011;3007;50.770;0.250;2023-12-04T09:44:24;13.00;;;4.47;;
5961;SDS011;3007;50.770;0.250;2023-12-04T09:46:54;15.07;;;5.60;;
5961;SDS011;3007;50.770;0.250;2023-12-04T09:49:22;11.30;;;4.07;;
5961;SDS011;3007;50.770;0.250;2023-12-04T09:51:49;12.50;;;4.27;;
5961;SDS011;3007;50.770;0.250;2023-12-04T09:54:19;13.10;;;4.40;;
5961;SDS011;3007;50.770;0.250;2023-12-04T09:56:46;20.53;;;5.03;;
5961;SDS011;3007;50.770;0.250;2023-12-04T09:59:15;14.37;;;4.40;;
5961;SDS011;3007;50.770;0.250;2023-12-04T10:01:43;16.60;;;5.20;;
5961;SDS011;3007;50.770;0.250;2023-12-04T10:04:12;11.43;;;4.20;;
5961;SDS011;3007;50.770;0.250;2023-12-04T10:06:39;15.40;;;4.80;;
5961;SDS011;3007;50.770;0.250;2023-12-04T10:09:07;15.00;;;4.33;;
5961;SDS011;3007;50.770;0.250;2023-12-04T10:11:40;13.93;;;4.53;;
5961;SDS011;3007;50.770;0.250;2023-12-04T10:14:20;14.93;;;5.00;;
5961;SDS011;3007;50.770;0.250;2023-12-04T10:16:48;15.20;;;4.70;;
5961;SDS011;3007;50.770;0.250;2023-12-04T10:19:15;12.40;;;4.17;;
5961;SDS011;3007;50.770;0.250;2023-12-04T10:21:44;10.13;;;3.93;;
5961;SDS011;3007;50.770;0.250;2023-12-04T10:24:11;11.60;;;3.50;;
5961;SDS011;3007;50.770;0.250;2023-12-04T10:26:38;14.77;;;4.10;;
5961;SDS011;3007;50.770;0.250;2023-12-04T10:29:17;12.33;;;3.60;;
5961;SDS011;3007;50.770;0.250;2023-12-04T10:31:49;17.27;;;4.67;;
5961;SDS011;3007;50.770;0.250;2023-12-04T10:34:18;14.37;;;3.50;;
5961;SDS011;3007;50.770;0.250;2023-12-04T10:36:46;11.83;;;3.80;;
5961;SDS011;3007;50.770;0.250;2023-12-04T10:39:13;11.07;;;3.47;;
5961;SDS011;3007;50.770;0.250;2023-12-04T10:41:41;11.33;;;3.57;;
5961;SDS011;3007;50.770;0.250;2023-12-04T10:44:09;12.23;;;3.30;;
5961;SDS011;3007;50.770;0.250;2023-12-04T10:46:42;12.30;;;3.33;;
5961;SDS011;3007;50.770;0.250;2023-12-04T10:49:12;12.03;;;2.80;;
5961;SDS011;3007;50.770;0.250;2023-12-04T10:51:40;13.10;;;3.03;;
5961;SDS011;3007;50.770;0.250;2023-12-04T10:54:11;10.40;;;3.40;;
5961;SDS011;3007;50.770;0.250;2023-12-04T10:56:38;9.70;;;2.63;;
5961;SDS011;3007;50.770;0.250;2023-12-04T10:59:11;15.20;;;3.17;;
5961;SDS011;3007;50.770;0.250;2023-12-04T11:01:44;14.10;;;3.00;;
5961;SDS011;3007;50.770;0.250;2023-12-04T11:04:14;10.40;;;3.50;;
5961;SDS011;3007;50.770;0.250;2023-12-04T11:06:45;10.40;;;3.20;;
5961;SDS011;3007;50.770;0.250;2023-12-04T11:09:15;9.60;;;2.80;;
5961;SDS011;3007;50.770;0.250;2023-12-04T11:11:44;10.60;;;3.53;;
5961;SDS011;3007;50.770;0.250;2023-12-04T11:14:16;12.93;;;3.13;;
5961;SDS011;3007;50.770;0.250;2023-12-04T11:16:48;12.83;;;3.33;;
5961;SDS011;3007;50.770;0.250;2023-12-04T11:19:20;17.17;;;3.27;;
5961;SDS011;3007;50.770;0.250;2023-12-04T11:21:53;14.70;;;2.67;;
5961;SDS011;3007;50.770;0.250;2023-12-04T11:24:22;10.63;;;3.03;;
5961;SDS011;3007;50.770;0.250;2023-12-04T11:26:50;10.90;;;2.90;;
5961;SDS011;3007;50.770;0.250;2023-12-04T11:29:19;10.07;;;3.20;;
5961;SDS011;3007;50.770;0.250;2023-12-04T11:31:48;18.27;;;3.20;;
5961;SDS011;3007;50.770;0.250;2023-12-04T11:34:15;16.70;;;4.23;;
5961;SDS011;3007;50.770;0.250;2023-12-04T11:36:42;13.20;;;2.57;;
5961;SDS011;3007;50.770;0.250;2023-12-04T11:39:10;12.13;;;3.23;;
5961;SDS011;3007;50.770;0.250;2023-12-04T11:41:37;12.50;;;3.10;;
5961;SDS011;3007;50.770;0.250;2023-12-04T11:44:11;12.13;;;2.93;;
5961;SDS011;3007;50.770;0.250;2023-12-04T11:46:54;13.13;;;2.77;;
5961;SDS011;3007;50.770;0.250;2023-12-04T11:49:28;13.97;;;3.10;;
5961;SDS011;3007;50.770;0.250;2023-12-04T11:51:58;13.87;;;2.80;;
5961;SDS011;3007;50.770;0.250;2023-12-04T11:54:58;8.60;;;2.40;;
5961;SDS011;3007;50.770;0.250;2023-12-04T11:57:31;17.60;;;3.20;;
5961;SDS011;3007;50.770;0.250;2023-12-04T12:00:08;9.30;;;3.00;;
5961;SDS011;3007;50.770;0.250;2023-12-04T12:02:46;14.83;;;3.37;;
5961;SDS011;3007;50.770;0.250;2023-12-04T12:05:14;14.37;;;2.90;;
5961;SDS011;3007;50.770;0.250;2023-12-04T12:07:41;11.77;;;2.80;;
5961;SDS011;3007;50.770;0.250;2023-12-04T12:10:09;12.20;;;2.90;;
5961;SDS011;3007;50.770;0.250;2023-12-04T12:12:38;10.50;;;3.37;;
5961;SDS011;3007;50.770;0.250;2023-12-04T12:15:07;17.23;;;3.00;;
5961;SDS011;3007;50.770;0.250;2023-12-04T12:17:35;9.20;;;2.63;;
5961;SDS011;3007;50.770;0.250;2023-12-04T12:20:05;9.27;;;2.80;;
5961;SDS011;3007;50.770;0.250;2023-12-04T12:22:34;10.57;;;3.37;;
5961;SDS011;3007;50.770;0.250;2023-12-04T12:25:09;8.17;;;2.87;;
5961;SDS011;3007;50.770;0.250;2023-12-04T12:27:37;15.07;;;3.10;;
5961;SDS011;3007;50.770;0.250;2023-12-04T12:30:04;6.60;;;2.40;;
5961;SDS011;3007;50.770;0.250;2023-12-04T12:32:32;16.97;;;3.00;;
5961;SDS011;3007;50.770;0.250;2023-12-04T12:35:02;16.57;;;3.10;;
5961;SDS011;3007;50.770;0.250;2023-12-04T12:37:31;9.67;;;2.97;;
5961;SDS011;3007;50.770;0.250;2023-12-04T12:39:58;14.33;;;3.23;;
5961;SDS011;3007;50.770;0.250;2023-12-04T12:42:25;10.63;;;2.93;;
5961;SDS011;3007;50.770;0.250;2023-12-04T12:44:54;13.63;;;3.23;;
5961;SDS011;3007;50.770;0.250;2023-12-04T12:47:21;9.97;;;2.93;;
5961;SDS011;3007;50.770;0.250;2023-12-04T12:49:49;12.63;;;2.80;;
5961;SDS011;3007;50.770;0.250;2023-12-04T12:52:19;8.23;;;2.73;;
5961;SDS011;3007;50.770;0.250;2023-12-04T12:54:50;12.70;;;3.30;;
5961;SDS011;3007;50.770;0.250;2023-12-04T12:57:18;16.47;;;3.83;;
5961;SDS011;3007;50.770;0.250;2023-12-04T12:59:48;15.60;;;6.50;;
5961;SDS011;3007;50.770;0.250;2023-12-04T13:02:15;11.73;;;3.70;;
5961;SDS011;3007;50.770;0.250;2023-12-04T13:04:43;10.50;;;3.53;;
5961;SDS011;3007;50.770;0.250;2023-12-04T13:07:10;9.03;;;2.83;;
5961;SDS011;3007;50.770;0.250;2023-12-04T13:09:37;7.27;;;3.13;;
5961;SDS011;3007;50.770;0.250;2023-12-04T13:12:06;6.80;;;2.63;;
5961;SDS011;3007;50.770;0.250;2023-12-04T13:14:34;13.80;;;3.57;;
5961;SDS011;3007;50.770;0.250;2023-12-04T13:17:01;8.57;;;3.27;;
5961;SDS011;3007;50.770;0.250;2023-12-04T13:19:29;8.23;;;2.70;;
5961;SDS011;3007;50.770;0.250;2023-12-04T13:21:59;11.87;;;3.13;;
5961;SDS011;3007;50.770;0.250;2023-12-04T13:24:26;12.47;;;3.20;;
5961;SDS011;3007;50.770;0.250;2023-12-04T13:26:54;15.83;;;3.33;;
5961;SDS011;3007;50.770;0.250;2023-12-04T13:29:23;12.63;;;3.10;;
5961;SDS011;3007;50.770;0.250;2023-12-04T13:31:49;8.70;;;3.27;;
5961;SDS011;3007;50.770;0.250;2023-12-04T13:34:16;11.20;;;3.10;;
5961;SDS011;3007;50.770;0.250;2023-12-04T13:36:46;12.13;;;3.33;;
5961;SDS011;3007;50.770;0.250;2023-12-04T13:39:13;13.07;;;2.93;;
5961;SDS011;3007;50.770;0.250;2023-12-04T13:41:46;11.47;;;3.33;;
5961;SDS011;3007;50.770;0.250;2023-12-04T13:44:31;8.87;;;3.10;;
5961;SDS011;3007;50.770;0.250;2023-12-04T13:46:58;12.13;;;3.27;;
5961;SDS011;3007;50.770;0.250;2023-12-04T13:49:25;11.87;;;3.70;;
5961;SDS011;3007;50.770;0.250;2023-12-04T13:51:53;13.97;;;3.40;;
5961;SDS011;3007;50.770;0.250;2023-12-04T13:54:20;8.90;;;3.27;;
5961;SDS011;3007;50.770;0.250;2023-12-04T13:56:59;9.47;;;3.67;;
5961;SDS011;3007;50.770;0.250;2023-12-04T13:59:28;12.73;;;3.93;;
5961;SDS011;3007;50.770;0.250;2023-12-04T14:01:59;16.87;;;4.37;;
5961;SDS011;3007;50.770;0.250;2023-12-04T14:04:29;11.13;;;3.30;;
5961;SDS011;3007;50.770;0.250;2023-12-04T14:06:56;10.53;;;4.20;;
5961;SDS011;3007;50.770;0.250;2023-12-04T14:09:23;12.00;;;3.67;;
5961;SDS011;3007;50.770;0.250;2023-12-04T14:11:49;20.07;;;3.60;;
5961;SDS011;3007;50.770;0.250;2023-12-04T14:14:16;12.20;;;4.17;;
5961;SDS011;3007;50.770;0.250;2023-12-04T14:16:43;13.47;;;3.20;;
5961;SDS011;3007;50.770;0.250;2023-12-04T14:19:13;10.30;;;3.83;;
5961;SDS011;3007;50.770;0.250;2023-12-04T14:21:42;15.00;;;3.60;;
5961;SDS011;3007;50.770;0.250;2023-12-04T14:24:09;8.57;;;3.23;;
5961;SDS011;3007;50.770;0.250;2023-12-04T14:26:36;8.20;;;2.90;;
5961;SDS011;3007;50.770;0.250;2023-12-04T14:29:03;7.60;;;2.87;;
5961;SDS011;3007;50.770;0.250;2023-12-04T14:31:31;12.83;;;2.93;;
5961;SDS011;3007;50.770;0.250;2023-12-04T14:33:58;11.63;;;2.70;;
5961;SDS011;3007;50.770;0.250;2023-12-04T14:36:26;10.37;;;3.70;;
5961;SDS011;3007;50.770;0.250;2023-12-04T14:38:54;16.33;;;3.90;;
5961;SDS011;3007;50.770;0.250;2023-12-04T14:41:21;9.10;;;3.23;;
5961;SDS011;3007;50.770;0.250;2023-12-04T14:43:49;10.43;;;3.57;;
5961;SDS011;3007;50.770;0.250;2023-12-04T14:46:15;11.17;;;3.47;;
5961;SDS011;3007;50.770;0.250;2023-12-04T14:48:42;9.60;;;3.47;;
5961;SDS011;3007;50.770;0.250;2023-12-04T14:51:09;12.17;;;3.63;;
5961;SDS011;3007;50.770;0.250;2023-12-04T14:53:38;12.33;;;3.70;;
5961;SDS011;3007;50.770;0.250;2023-12-04T14:56:15;15.03;;;4.27;;
5961;SDS011;3007;50.770;0.250;2023-12-04T14:58:50;16.77;;;4.43;;
5961;SDS011;3007;50.770;0.250;2023-12-04T15:01:41;9.00;;;3.73;;
5961;SDS011;3007;50.770;0.250;2023-12-04T15:04:31;12.87;;;4.10;;
5961;SDS011;3007;50.770;0.250;2023-12-04T15:07:16;9.17;;;3.90;;
5961;SDS011;3007;50.770;0.250;2023-12-04T15:10:02;8.57;;;4.50;;